Time;durP1;ratioP1;P1;durP2;ratioP2;P2;SDS_P1;SDS_P2;PMS_P1;PMS_P2;Temp;Humidity;BMP_temperature;BMP_pressure;BME280_temperature;BME280_humidity;BME280_pressure;Samples;Min_cycle;Max_cycle;Signal;HPM_P1;HPM_P2
2022/02/16 00:00:26;;;;;;;32.50;23.60;;;;;;;21.25;32.26;101249.98;102698;1325;60838;-85
2022/02/16 00:03:03;;;;;;;32.60;24.00;;;;;;;21.25;32.28;101251.95;102743;1326;61644;-84
2022/02/16 00:05:41;;;;;;;33.10;24.40;;;;;;;21.25;32.29;101249.82;103027;1323;72891;-83
2022/02/16 00:08:44;;;;;;;30.90;23.80;;;;;;;21.24;32.22;101245.20;103293;1320;74143;-84
2022/02/16 00:11:36;;;;;;;31.90;22.70;;;;;;;21.24;32.33;101242.68;103372;1320;60412;-82
2022/02/16 00:14:16;;;;;;;35.80;24.30;;;;;;;21.24;32.32;101239.49;102707;1326;60685;-81
2022/02/16 00:17:09;;;;;;;;;;;;;;;;;;;;;
2022/02/16 00:19:58;;;;;;;34.40;24.00;;;;;;;21.23;32.29;101248.84;102748;1326;75110;-84
2022/02/16 00:22:35;;;;;;;32.30;23.60;;;;;;;21.23;32.45;101251.55;103242;1322;60630;-81
2022/02/16 00:25:21;;;;;;;30.70;24.10;;;;;;;21.23;32.36;101246.36;103310;1322;60611;-84
2022/02/16 00:28:17;;;;;;;35.50;24.30;;;;;;;21.22;32.45;101242.82;103104;1323;73866;-82
2022/02/16 00:31:05;;;;;;;;;;;;;;;;;;;;;
2022/02/16 00:33:52;;;;;;;36.10;24.00;;;;;;;21.22;32.60;101241.79;103711;1317;60502;-82
2022/02/16 00:36:33;;;;;;;30.80;24.00;;;;;;;21.22;32.43;101244.80;103824;1317;60929;-84
2022/02/16 00:39:12;;;;;;;32.90;23.90;;;;;;;21.21;32.47;101239.85;103770;1317;72720;-81
2022/02/16 00:41:58;;;;;;;33.40;24.20;;;;;;;21.21;32.45;101232.88;103699;1319;75008;-80
2022/02/16 00:44:57;;;;;;;32.80;23.90;;;;;;;21.21;32.61;101232.18;103832;1317;62323;-83
2022/02/16 00:47:57;;;;;;;30.30;23.80;;;;;;;21.20;32.63;101230.08;103962;1317;59257;-81
2022/02/16 00:50:53;;;;;;;34.60;24.20;;;;;;;21.19;32.51;101222.78;103510;1317;72930;-82
2022/02/16 00:53:21;;;;;;;32.00;23.80;;;;;;;21.20;32.49;101218.09;104370;1311;73152;-83
2022/02/16 00:56:10;;;;;;;29.80;23.30;;;;;;;21.20;32.62;101214.71;104444;1309;60450;-81
2022/02/16 00:59:13;;;;;;;34.20;24.40;;;;;;;21.20;32.40;101207.20;104039;1314;60495;-82
2022/02/16 01:01:49;;;;;;;34.30;23.60;;;;;;;21.19;32.60;101205.98;104177;1314;71759;-82
2022/02/16 01:04:51;;;;;;;35.10;23.70;;;;;;;21.18;32.48;101197.05;103638;1319;72724;-81
2022/02/16 01:07:47;;;;;;;33.20;24.40;;;;;;;21.19;32.50;101192.59;103642;1319;61465;-83
2022/02/16 01:10:23;;;;;;;35.60;24.30;;;;;;;21.18;32.61;101193.31;103784;1319;60527;-82
2022/02/16 01:13:13;;;;;;;33.40;24.50;;;;;;;21.18;32.59;101195.48;103494;1319;73977;-82
2022/02/16 01:15:59;;;;;;;34.10;24.10;;;;;;;21.18;32.61;101194.77;103613;1319;73263;-84
2022/02/16 01:18:49;;;;;;;37.50;25.30;;;;;;;21.18;32.52;101188.72;102977;1325;60560;-82
2022/02/16 01:21:45;;;;;;;36.70;24.70;;;;;;;21.17;32.58;101182.85;103032;1325;60509;-82
2022/02/16 01:24:35;;;;;;;34.60;25.40;;;;;;;21.17;32.66;101179.09;103038;1326;72681;-82
2022/02/16 01:27:21;;;;;;;34.70;25.20;;;;;;;21.17;32.69;101177.67;102862;1326;74924;-85
2022/02/16 01:30:17;;;;;;;32.60;25.00;;;;;;;21.16;32.62;101177.00;102862;1325;61857;-80
2022/02/16 01:33:07;;;;;;;34.10;24.90;;;;;;;21.16;32.63;101176.47;102993;1326;61595;-82
2022/02/16 01:36:28;;;;;;;32.60;24.10;;;;;;;21.16;32.56;101171.83;102809;1321;72866;-83
2022/02/16 01:39:16;;;;;;;33.90;24.70;;;;;;;21.15;32.53;101167.20;103517;1320;73937;-83
2022/02/16 01:42:23;;;;;;;33.70;24.80;;;;;;;21.15;32.76;101163.65;103466;1316;60522;-86
2022/02/16 01:45:12;;;;;;;34.00;24.40;;;;;;;21.15;32.70;101166.35;103902;1316;61715;-84
2022/02/16 01:48:00;;;;;;;36.70;24.30;;;;;;;21.15;32.47;101164.52;104130;1316;73488;-82
2022/02/16 01:51:25;;;;;;;;;;;;;;;;;;;;;
2022/02/16 01:54:15;;;;;;;;;;;;;;;;;;;;;
2022/02/16 01:57:19;;;;;;;34.00;25.10;;;;;;;21.14;32.63;101156.72;102698;1328;62295;-84
2022/02/16 02:02:55;;;;;;;35.40;25.40;;;;;;;21.14;32.64;101150.30;102512;1331;75081;-82
2022/02/16 02:05:51;;;;;;;;;;;;;;;;;;;;;
2022/02/16 02:08:41;;;;;;;33.00;24.60;;;;;;;21.13;32.57;101156.77;101974;1338;60616;-84
2022/02/16 02:11:38;;;;;;;32.20;24.40;;;;;;;21.14;32.58;101154.43;101799;1343;73400;-85
2022/02/16 02:14:47;;;;;;;34.60;24.00;;;;;;;21.13;32.57;101149.29;101749;1344;71723;-81
2022/02/16 02:17:45;;;;;;;32.20;24.40;;;;;;;21.13;32.65;101146.61;101529;1349;61719;-83
2022/02/16 02:20:59;;;;;;;32.90;24.30;;;;;;;21.12;32.67;101145.92;101565;1349;61674;-79
2022/02/16 02:23:46;;;;;;;34.00;25.20;;;;;;;21.11;32.61;101150.30;100395;1361;72928;-82
2022/02/16 02:26:41;;;;;;;35.00;24.90;;;;;;;21.12;32.66;101150.81;100385;1362;75401;-84
2022/02/16 02:29:33;;;;;;;34.40;24.60;;;;;;;21.11;32.58;101154.76;100775;1357;61031;-87
2022/02/16 02:32:22;;;;;;;34.60;24.50;;;;;;;21.12;32.65;101148.84;101222;1351;61563;-82
2022/02/16 02:34:57;;;;;;;33.40;24.30;;;;;;;21.11;32.72;101149.92;101247;1352;72522;-84
2022/02/16 02:38:06;;;;;;;33.70;24.70;;;;;;;21.11;32.62;101149.06;101298;1351;77346;-88
2022/02/16 02:40:46;;;;;;;33.60;24.20;;;;;;;21.10;32.69;101149.23;101364;1347;60733;-84
2022/02/16 02:43:25;;;;;;;;;;;;;;;;;;;;;
2022/02/16 02:46:15;;;;;;;32.60;23.50;;;;;;;21.10;32.66;101148.59;101774;1340;72870;-84
2022/02/16 02:49:05;;;;;;;29.60;23.80;;;;;;;21.10;32.73;101145.20;102020;1335;75235;-82
2022/02/16 02:51:54;;;;;;;33.80;24.80;;;;;;;21.10;32.65;101147.71;102235;1334;60975;-86
2022/02/16 02:54:39;;;;;;;33.50;23.60;;;;;;;21.10;32.66;101148.41;101923;1335;60571;-84
2022/02/16 02:57:31;;;;;;;32.10;23.20;;;;;;;21.09;32.65;101150.62;102136;1335;72414;-84
2022/02/16 03:00:15;;;;;;;32.90;25.20;;;;;;;21.08;32.63;101149.75;102350;1323;75186;-82
2022/02/16 03:02:51;;;;;;;33.60;25.50;;;;;;;21.08;32.67;101152.98;103276;1323;60733;-82
2022/02/16 03:05:43;;;;;;;32.70;24.70;;;;;;;21.08;32.64;101151.91;103223;1317;60602;-82
2022/02/16 03:08:52;;;;;;;33.00;24.60;;;;;;;21.07;32.69;101149.63;103678;1317;74797;-83
2022/02/16 03:11:49;;;;;;;32.00;25.50;;;;;;;21.07;32.75;101144.10;103669;1317;74206;-81
2022/02/16 03:14:28;;;;;;;33.90;24.50;;;;;;;21.06;32.66;101143.99;103786;1317;61892;-84
2022/02/16 03:17:37;;;;;;;30.40;23.70;;;;;;;21.06;32.98;101146.52;103804;1317;60747;-81
2022/02/16 03:20:11;;;;;;;34.40;25.40;;;;;;;21.06;32.80;101143.98;103819;1317;73227;-83
2022/02/16 03:22:40;;;;;;;34.00;24.90;;;;;;;21.06;32.72;101141.65;103392;1317;75047;-84
2022/02/16 03:25:18;;;;;;;33.20;25.40;;;;;;;21.06;32.74;101143.99;103529;1317;61710;-83
2022/02/16 03:28:05;;;;;;;32.40;25.20;;;;;;;21.06;32.74;101145.98;103557;1317;60471;-84
2022/02/16 03:30:44;;;;;;;32.00;24.20;;;;;;;21.05;32.79;101146.73;103793;1317;74168;-85
2022/02/16 03:33:24;;;;;;;34.00;25.30;;;;;;;21.05;32.82;101144.59;104357;1311;74900;-81
2022/02/16 03:36:30;;;;;;;32.50;25.50;;;;;;;21.04;32.80;101139.48;104429;1311;61411;-84
2022/02/16 03:39:11;;;;;;;33.10;24.00;;;;;;;21.04;32.99;101142.15;104436;1311;60518;-87
2022/02/16 03:42:15;;;;;;;31.80;24.80;;;;;;;21.04;32.80;101142.71;104435;1311;73068;-84
2022/02/16 03:45:11;;;;;;;30.00;23.80;;;;;;;21.03;32.75;101140.95;104480;1309;75034;-83
2022/02/16 03:48:04;;;;;;;32.80;25.10;;;;;;;21.03;32.95;101140.98;104458;1311;60587;-83
2022/02/16 03:50:41;;;;;;;32.30;24.40;;;;;;;21.03;32.86;101142.06;104429;1311;60492;-83
2022/02/16 03:53:24;;;;;;;29.90;24.20;;;;;;;21.03;32.98;101142.98;104408;1311;74060;-83
2022/02/16 03:55:57;;;;;;;31.00;24.00;;;;;;;21.02;32.74;101140.85;104359;1311;75059;-80
2022/02/16 03:58:31;;;;;;;32.40;25.30;;;;;;;21.02;33.00;101145.14;104307;1311;60449;-87
2022/02/16 04:01:17;;;;;;;34.70;25.00;;;;;;;21.02;32.88;101146.58;104604;1309;60577;-88
2022/02/16 04:03:52;;;;;;;35.10;24.90;;;;;;;21.02;32.86;101143.77;104402;1309;73913;-83
2022/02/16 04:06:38;;;;;;;33.00;24.80;;;;;;;21.02;32.75;101143.23;104388;1308;74988;-83
2022/02/16 04:09:20;;;;;;;34.00;24.70;;;;;;;21.01;32.79;101144.48;104353;1308;61436;-84
2022/02/16 04:12:04;;;;;;;34.60;25.70;;;;;;;21.01;32.75;101148.44;104522;1308;61641;-86
2022/02/16 04:14:59;;;;;;;31.70;24.80;;;;;;;21.00;32.64;101147.41;104455;1309;73826;-83
2022/02/16 04:17:54;;;;;;;34.00;25.10;;;;;;;21.00;32.74;101147.42;103762;1317;74090;-86
2022/02/16 04:21:00;;;;;;;32.90;24.80;;;;;;;21.00;32.90;101147.09;103990;1315;61503;-83
2022/02/16 04:23:32;;;;;;;32.20;25.10;;;;;;;20.99;32.83;101139.63;104124;1316;60396;-86
2022/02/16 04:26:10;;;;;;;36.60;25.20;;;;;;;20.99;32.72;101133.73;104127;1317;72811;-81
2022/02/16 04:29:20;;;;;;;35.90;24.90;;;;;;;20.99;32.87;101135.33;103696;1317;73034;-80
2022/02/16 04:32:05;;;;;;;35.70;26.10;;;;;;;20.98;32.80;101135.21;103726;1317;60685;-86
2022/02/16 04:34:51;;;;;;;36.50;26.10;;;;;;;20.98;32.61;101138.24;103798;1317;60497;-82
2022/02/16 04:37:37;;;;;;;36.10;26.20;;;;;;;20.98;32.60;101139.73;103820;1317;73006;-82
2022/02/16 04:41:02;;;;;;;33.00;24.60;;;;;;;20.97;32.40;101139.78;103211;1323;72701;-85
2022/02/16 04:43:48;;;;;;;35.40;25.80;;;;;;;20.96;32.50;101133.59;102718;1329;60975;-84
2022/02/16 04:46:40;;;;;;;38.30;25.00;;;;;;;20.96;32.39;101129.67;102703;1328;60573;-82
2022/02/16 04:49:20;;;;;;;42.20;28.90;;;;;;;20.95;32.29;101133.62;102698;1329;73298;-84
2022/02/16 04:52:07;;;;;;;38.70;28.20;;;;;;;20.94;32.14;101130.83;102728;1329;74472;-83
2022/02/16 04:54:59;;;;;;;;;;;;;;;;;;;;;
2022/02/16 04:57:45;;;;;;;38.90;30.10;;;;;;;20.92;31.70;101120.20;103301;1323;60441;-83
2022/02/16 05:00:31;;;;;;;41.70;29.90;;;;;;;20.90;31.53;101117.11;103048;1323;75124;-84
2022/02/16 05:03:17;;;;;;;44.10;31.30;;;;;;;20.88;31.40;101122.29;103214;1322;75233;-87
2022/02/16 05:06:12;;;;;;;41.90;31.20;;;;;;;20.86;31.25;101120.95;103092;1323;61487;-81
2022/02/16 05:09:04;;;;;;;45.30;33.40;;;;;;;20.83;31.17;101125.09;102691;1326;60495;-81
2022/02/16 05:11:57;;;;;;;42.40;29.70;;;;;;;20.81;30.88;101123.77;102723;1326;72825;-82
2022/02/16 05:14:56;;;;;;;43.60;29.50;;;;;;;20.80;30.85;101129.08;102719;1326;73944;-81
2022/02/16 05:17:42;;;;;;;42.90;30.30;;;;;;;20.79;30.76;101135.90;102946;1320;61631;-84
2022/02/16 05:20:13;;;;;;;43.50;29.60;;;;;;;20.78;30.77;101134.73;103343;1317;61737;-83
2022/02/16 05:23:10;;;;;;;40.10;28.10;;;;;;;20.77;30.51;101131.23;103339;1320;71540;-83
2022/02/16 05:26:01;;;;;;;;;;;;;;;;;;;;;
2022/02/16 05:29:02;;;;;;;49.00;33.40;;;;;;;20.70;30.48;101130.91;103350;1320;61389;-83
2022/02/16 05:32:08;;;;;;;46.30;33.20;;;;;;;20.66;30.28;101133.14;102840;1326;60513;-80
2022/02/16 05:34:54;;;;;;;49.00;32.30;;;;;;;20.64;30.23;101131.83;102776;1324;71845;-84
2022/02/16 05:37:49;;;;;;;;;;;;;;;;;;;;;
2022/02/16 05:40:26;;;;;;;53.60;35.70;;;;;;;20.60;29.91;101128.67;102799;1324;61468;-82
2022/02/16 05:43:08;;;;;;;48.10;31.90;;;;;;;20.59;29.77;101125.01;102634;1325;60868;-81
2022/02/16 05:45:55;;;;;;;;;;;;;;;;;;;;;
2022/02/16 05:48:23;;;;;;;40.30;28.60;;;;;;;20.55;29.53;101124.90;103322;1318;75023;-79
2022/02/16 05:50:55;;;;;;;52.00;35.60;;;;;;;20.54;29.32;101128.94;103018;1318;60467;-80
2022/02/16 05:53:23;;;;;;;57.70;37.50;;;;;;;20.51;29.21;101129.77;102814;1319;60443;-79
2022/02/16 05:55:49;;;;;;;52.00;37.30;;;;;;;20.47;29.07;101132.91;102875;1318;74215;-81
2022/02/16 05:58:28;;;;;;;57.30;38.00;;;;;;;20.43;28.88;101135.30;103176;1318;60717;-80
2022/02/16 06:00:54;;;;;;;60.50;39.10;;;;;;;20.39;28.76;101138.95;103332;1315;61504;-80
2022/02/16 06:03:24;;;;;;;61.40;39.10;;;;;;;20.33;28.70;101139.36;103566;1313;60441;-80
2022/02/16 06:05:53;;;;;;;61.50;40.40;;;;;;;20.29;28.50;101141.54;103660;1312;60480;-79
2022/02/16 06:08:28;;;;;;;64.10;40.70;;;;;;;20.22;28.29;101148.77;103637;1309;74325;-80
2022/02/16 06:11:02;;;;;;;56.10;37.40;;;;;;;20.07;28.16;101154.72;103988;1308;59948;-79
2022/02/16 06:13:29;;;;;;;54.40;38.90;;;;;;;20.00;28.17;101159.63;103980;1309;60535;-79
2022/02/16 06:15:54;;;;;;;61.00;38.30;;;;;;;20.00;28.27;101160.86;103971;1309;60530;-79
2022/02/16 06:18:23;;;;;;;62.80;36.70;;;;;;;20.02;28.22;101161.62;104110;1309;60945;-80
2022/02/16 06:20:51;;;;;;;54.70;35.10;;;;;;;20.03;28.26;101161.52;104047;1308;60766;-80
2022/02/16 06:23:23;;;;;;;55.40;36.40;;;;;;;20.05;28.36;101165.71;104021;1309;60502;-83
2022/02/16 06:25:49;;;;;;;55.10;35.60;;;;;;;20.07;28.28;101172.37;104069;1309;72925;-80
2022/02/16 06:28:17;;;;;;;54.20;35.20;;;;;;;20.08;28.35;101174.61;103996;1308;60508;-79
2022/02/16 06:30:43;;;;;;;48.60;35.70;;;;;;;20.10;28.40;101172.54;104031;1309;60427;-79
2022/02/16 06:33:14;;;;;;;46.30;34.40;;;;;;;20.13;28.28;101176.52;103970;1309;60528;-79
2022/02/16 06:35:39;;;;;;;50.30;35.00;;;;;;;20.16;28.44;101172.73;103993;1308;72209;-79
2022/02/16 06:38:10;;;;;;;51.80;34.80;;;;;;;20.20;28.53;101169.11;103999;1309;60471;-80
2022/02/16 06:40:40;;;;;;;51.90;32.90;;;;;;;20.23;28.61;101167.27;104856;1309;62206;-79
2022/02/16 06:43:08;;;;;;;59.80;37.70;;;;;;;20.26;28.58;101164.80;104162;1308;61803;-79
2022/02/16 06:45:34;;;;;;;54.40;35.50;;;;;;;20.29;28.60;101157.31;103996;1309;72686;-80
2022/02/16 06:48:00;;;;;;;59.40;35.60;;;;;;;20.30;28.64;101161.14;104070;1309;60507;-80
2022/02/16 06:50:35;;;;;;;56.20;38.80;;;;;;;20.30;28.55;101161.48;104039;1309;60485;-79
2022/02/16 06:53:01;;;;;;;61.20;41.20;;;;;;;20.28;28.45;101164.12;103849;1309;61761;-81
2022/02/16 06:55:26;;;;;;;65.10;43.00;;;;;;;20.20;28.73;101166.38;104269;1309;61163;-79
2022/02/16 06:57:53;;;;;;;72.60;42.50;;;;;;;20.07;28.58;101170.23;103979;1308;60552;-79
2022/02/16 07:00:18;;;;;;;63.00;39.20;;;;;;;20.00;28.77;101169.23;103986;1308;60704;-80
2022/02/16 07:02:45;;;;;;;62.30;43.40;;;;;;;20.01;28.94;101172.95;103913;1308;60502;-81
2022/02/16 07:05:10;;;;;;;68.20;45.00;;;;;;;20.01;29.07;101173.63;104031;1309;60453;-79
2022/02/16 07:07:36;;;;;;;64.60;42.40;;;;;;;19.95;29.02;101177.21;104085;1309;60383;-79
2022/02/16 07:10:02;;;;;;;58.00;41.60;;;;;;;19.95;28.96;101180.47;103978;1309;73971;-80
2022/02/16 07:12:32;;;;;;;59.80;40.50;;;;;;;19.97;29.00;101174.27;103987;1309;60565;-81
2022/02/16 07:14:58;;;;;;;63.40;40.90;;;;;;;19.99;29.02;101170.00;103997;1309;61313;-79
2022/02/16 07:17:24;;;;;;;63.90;40.70;;;;;;;20.03;28.91;101162.12;103987;1308;60541;-80
2022/02/16 07:19:50;;;;;;;56.40;40.50;;;;;;;20.04;28.90;101157.38;104454;1309;60465;-79
2022/02/16 07:22:18;;;;;;;56.70;39.70;;;;;;;20.07;29.03;101147.39;104028;1309;60510;-79
2022/02/16 07:24:43;;;;;;;64.70;40.00;;;;;;;20.10;28.84;101142.69;103968;1308;60519;-79
2022/02/16 07:27:09;;;;;;;61.50;38.90;;;;;;;20.14;29.00;101140.16;103866;1309;60536;-79
2022/02/16 07:29:34;;;;;;;59.40;40.00;;;;;;;20.17;28.89;101139.95;104110;1309;60576;-79
2022/02/16 07:32:00;;;;;;;59.90;40.90;;;;;;;20.21;28.81;101129.91;103962;1308;60461;-79
2022/02/16 07:34:31;;;;;;;62.50;40.20;;;;;;;20.25;28.98;101124.09;104014;1309;60764;-80
2022/02/16 07:37:00;;;;;;;63.30;41.10;;;;;;;20.29;28.98;101123.68;103990;1309;60582;-79
2022/02/16 07:39:27;;;;;;;60.10;41.80;;;;;;;20.32;28.89;101118.08;103881;1308;73250;-79
2022/02/16 07:41:56;;;;;;;62.00;40.50;;;;;;;20.37;28.73;101114.95;103863;1309;74820;-80
2022/02/16 07:44:23;;;;;;;62.30;39.70;;;;;;;20.42;28.91;101112.83;104195;1309;60529;-79
2022/02/16 07:46:52;;;;;;;54.90;39.50;;;;;;;20.48;28.86;101113.73;104270;1309;60996;-78
2022/02/16 07:49:17;;;;;;;53.60;39.10;;;;;;;20.54;28.66;101109.23;104000;1309;60587;-79
2022/02/16 07:51:43;;;;;;;54.70;37.30;;;;;;;20.60;28.53;101114.17;104036;1309;60796;-79
2022/02/16 07:54:09;;;;;;;52.00;38.10;;;;;;;20.66;28.69;101117.40;103863;1309;61794;-78
2022/02/16 07:56:36;;;;;;;53.10;37.70;;;;;;;20.68;28.71;101119.07;103934;1309;60651;-79
2022/02/16 07:59:01;;;;;;;54.90;36.50;;;;;;;20.67;28.57;101117.86;104235;1309;60546;-79
2022/02/16 08:01:27;;;;;;;50.70;36.10;;;;;;;20.67;28.54;101118.23;104082;1309;60550;-80
2022/02/16 08:04:15;;;;;;;49.70;35.20;;;;;;;20.68;28.35;101117.66;104013;1308;60564;-79
2022/02/16 08:06:38;;;;;;;47.40;33.20;;;;;;;20.66;28.31;101119.03;103952;1309;61608;-80
2022/02/16 08:09:04;;;;;;;45.20;31.10;;;;;;;20.62;28.55;101120.67;104006;1309;60518;-80
2022/02/16 08:11:30;;;;;;;45.50;32.30;;;;;;;20.61;28.63;101118.63;104026;1308;60449;-79
2022/02/16 08:13:55;;;;;;;43.30;33.10;;;;;;;20.62;28.56;101116.74;104151;1309;60852;-79
2022/02/16 08:16:21;;;;;;;48.80;33.70;;;;;;;20.63;28.61;101112.42;104025;1308;60591;-79
2022/02/16 08:18:47;;;;;;;51.50;35.10;;;;;;;20.64;28.46;101116.80;103996;1308;60699;-81
2022/02/16 08:21:15;;;;;;;49.40;36.60;;;;;;;20.65;28.75;101109.75;104016;1308;60538;-79
2022/02/16 08:23:42;;;;;;;53.90;36.90;;;;;;;20.68;28.48;101109.41;103963;1309;73599;-79
2022/02/16 08:26:07;;;;;;;51.10;36.30;;;;;;;20.70;28.53;101096.45;104533;1308;73834;-80
2022/02/16 08:28:34;;;;;;;50.60;35.40;;;;;;;20.73;28.53;101091.04;103901;1308;60062;-80
2022/02/16 08:31:01;;;;;;;52.90;35.80;;;;;;;20.79;28.51;101090.34;104465;1309;60432;-79
2022/02/16 08:33:26;;;;;;;57.70;34.30;;;;;;;20.88;28.46;101092.87;103970;1309;63054;-80
2022/02/16 08:35:54;;;;;;;53.50;35.30;;;;;;;20.95;28.31;101092.14;104049;1309;60519;-80
2022/02/16 08:38:20;;;;;;;50.00;34.00;;;;;;;20.99;28.71;101086.89;103996;1309;60315;-80
2022/02/16 08:40:46;;;;;;;56.30;34.40;;;;;;;21.01;28.83;101081.70;103847;1309;60612;-80
2022/02/16 08:43:12;;;;;;;48.90;32.90;;;;;;;21.04;28.65;101078.85;104077;1309;61185;-80
2022/02/16 08:45:38;;;;;;;46.80;33.70;;;;;;;21.06;28.73;101076.20;104141;1306;59307;-80
2022/02/16 08:48:04;;;;;;;44.20;31.90;;;;;;;21.08;28.79;101075.71;104059;1309;60613;-80
2022/02/16 08:50:30;;;;;;;53.40;32.20;;;;;;;21.09;28.66;101079.94;103921;1308;59941;-79
2022/02/16 08:53:19;;;;;;;46.20;31.60;;;;;;;21.11;28.74;101088.38;104128;1308;62469;-79
2022/02/16 08:55:48;;;;;;;42.30;28.50;;;;;;;21.09;28.81;101096.77;103055;1314;75238;-82
2022/02/16 08:58:16;;;;;;;39.90;28.10;;;;;;;21.04;28.93;101096.16;103491;1314;60626;-82
2022/02/16 09:00:42;;;;;;;38.20;29.10;;;;;;;20.99;28.78;101098.67;103595;1317;60465;-80
2022/02/16 09:03:08;;;;;;;42.80;30.30;;;;;;;20.93;29.00;101096.90;103545;1314;60483;-80
2022/02/16 09:05:34;;;;;;;52.00;29.80;;;;;;;20.89;28.82;101090.36;103718;1315;59062;-80
2022/02/16 09:07:59;;;;;;;45.40;31.70;;;;;;;20.82;28.79;101088.70;103362;1314;63833;-79
2022/02/16 09:10:25;;;;;;;49.90;33.30;;;;;;;20.75;28.72;101087.86;103568;1314;58798;-80
2022/02/16 09:12:51;;;;;;;47.10;31.40;;;;;;;20.72;28.92;101086.98;103405;1315;60971;-78
2022/02/16 09:15:18;;;;;;;50.80;30.20;;;;;;;20.71;29.17;101083.15;103285;1315;73741;-80
2022/02/16 09:17:44;;;;;;;45.00;30.50;;;;;;;20.70;29.11;101081.42;103596;1314;74953;-80
2022/02/16 09:20:13;;;;;;;45.60;30.70;;;;;;;20.69;29.29;101078.62;103394;1314;61022;-79
2022/02/16 09:22:40;;;;;;;37.50;29.10;;;;;;;20.67;29.41;101078.86;103186;1314;60552;-79
2022/02/16 09:25:07;;;;;;;42.90;29.80;;;;;;;20.68;29.47;101077.59;103280;1316;73416;-80
2022/02/16 09:27:35;;;;;;;36.90;28.50;;;;;;;20.68;29.46;101076.16;103407;1314;60544;-80
2022/02/16 09:30:21;;;;;;;46.00;28.30;;;;;;;20.69;29.35;101074.67;103203;1314;60609;-80
2022/02/16 09:32:47;;;;;;;37.10;27.00;;;;;;;20.69;29.51;101070.90;103634;1309;60700;-80
2022/02/16 09:35:38;;;;;;;39.90;26.50;;;;;;;20.69;29.46;101068.77;103931;1309;60419;-79
2022/02/16 09:38:13;;;;;;;35.10;26.00;;;;;;;20.68;29.65;101062.57;104144;1309;75065;-80
2022/02/16 09:40:45;;;;;;;36.80;24.20;;;;;;;20.66;29.62;101058.91;103751;1309;61678;-83
2022/02/16 09:43:11;;;;;;;32.70;23.20;;;;;;;20.65;29.62;101055.77;103969;1308;60512;-80
2022/02/16 09:45:46;;;;;;;30.20;22.30;;;;;;;20.64;29.53;101053.66;104014;1308;73646;-80
2022/02/16 09:48:12;;;;;;;29.90;21.00;;;;;;;20.64;29.55;101051.73;103912;1309;74283;-80
2022/02/16 09:50:40;;;;;;;25.80;17.30;;;;;;;20.63;29.55;101040.70;103883;1309;60603;-79
2022/02/16 09:53:06;;;;;;;33.90;16.90;;;;;;;20.60;29.39;101030.14;104187;1308;60711;-79
2022/02/16 09:55:35;;;;;;;26.20;16.60;;;;;;;20.49;29.16;101023.90;103928;1309;60802;-81
2022/02/16 09:58:01;;;;;;;27.60;16.80;;;;;;;20.38;29.11;101019.45;103914;1309;74601;-79
2022/02/16 10:00:29;;;;;;;25.60;14.70;;;;;;;20.32;29.28;101015.00;104029;1309;60592;-79
2022/02/16 10:03:00;;;;;;;31.10;16.50;;;;;;;20.21;28.99;101004.77;103711;1309;60453;-79
2022/02/16 10:05:33;;;;;;;22.30;15.10;;;;;;;20.18;29.06;101001.43;104030;1309;72543;-81
2022/02/16 10:08:08;;;;;;;34.20;16.30;;;;;;;20.21;28.98;100997.14;103938;1309;74096;-79
2022/02/16 10:10:34;;;;;;;26.80;14.60;;;;;;;20.23;29.44;100993.02;103797;1309;60481;-80
2022/02/16 10:13:02;;;;;;;26.90;14.60;;;;;;;20.26;29.39;100990.38;103944;1309;60600;-80
2022/02/16 10:15:43;;;;;;;23.20;15.10;;;;;;;20.29;29.34;100987.15;103582;1309;506833;-80
2022/02/16 10:18:14;;;;;;;25.40;14.60;;;;;;;20.31;29.62;100986.98;105070;1309;74913;-80
2022/02/16 10:20:41;;;;;;;21.50;14.60;;;;;;;20.34;29.48;100984.99;104479;1309;61384;-78
2022/02/16 10:23:10;;;;;;;19.60;13.00;;;;;;;20.38;29.76;100981.92;104135;1308;61828;-79
2022/02/16 10:25:49;;;;;;;20.60;13.80;;;;;;;20.40;29.85;100977.46;104155;1309;72729;-80
2022/02/16 10:28:18;;;;;;;29.60;13.80;;;;;;;20.42;29.92;100967.86;104369;1308;75072;-80
2022/02/16 10:30:59;;;;;;;21.50;13.10;;;;;;;20.43;30.08;100963.13;104092;1312;60534;-80
2022/02/16 10:33:31;;;;;;;25.00;13.10;;;;;;;20.46;30.28;100958.86;104898;1308;60806;-80
2022/02/16 10:35:59;;;;;;;19.80;14.20;;;;;;;20.47;30.42;100963.79;104322;1308;72746;-79
2022/02/16 10:38:24;;;;;;;20.70;13.60;;;;;;;20.49;30.36;100962.96;105091;1307;72918;-80
2022/02/16 10:41:02;;;;;;;19.50;13.40;;;;;;;20.51;30.22;100962.48;105207;1308;58584;-80
2022/02/16 10:43:46;;;;;;;23.00;13.70;;;;;;;20.50;30.17;100958.56;103850;1308;61736;-80
2022/02/16 10:46:31;;;;;;;21.60;14.30;;;;;;;20.52;30.22;100949.36;103913;1310;72666;-80
2022/02/16 10:49:17;;;;;;;25.60;14.00;;;;;;;20.52;30.18;100946.79;104008;1308;73260;-80
2022/02/16 10:51:44;;;;;;;22.60;14.80;;;;;;;20.53;30.24;100940.19;103941;1309;60580;-77
2022/02/16 10:54:17;;;;;;;22.60;12.10;;;;;;;20.52;30.38;100937.39;104277;1308;60951;-79
2022/02/16 10:56:43;;;;;;;18.00;11.80;;;;;;;20.48;30.02;100931.75;104177;1309;74358;-81
2022/02/16 10:59:09;;;;;;;22.90;11.90;;;;;;;20.43;29.89;100927.77;105210;1309;73679;-80
2022/02/16 11:01:36;;;;;;;25.20;12.20;;;;;;;20.38;29.91;100923.23;104272;1308;60545;-79
2022/02/16 11:04:06;;;;;;;18.30;11.90;;;;;;;20.32;29.69;100917.98;103827;1308;60542;-79
2022/02/16 11:06:34;;;;;;;22.10;13.50;;;;;;;20.23;29.39;100921.73;104009;1308;72389;-80
2022/02/16 11:08:59;;;;;;;21.60;13.80;;;;;;;20.24;29.60;100920.27;105025;1308;75020;-79
2022/02/16 11:11:27;;;;;;;27.70;14.60;;;;;;;20.28;29.73;100918.90;104977;1309;59319;-79
2022/02/16 11:13:57;;;;;;;24.70;13.90;;;;;;;20.32;29.88;100917.39;104957;1309;60376;-80
2022/02/16 11:16:23;;;;;;;26.30;14.90;;;;;;;20.34;29.90;100916.35;105130;1308;73107;-79
2022/02/16 11:18:50;;;;;;;23.70;13.60;;;;;;;20.37;29.81;100915.48;105045;1309;58932;-80
2022/02/16 11:21:20;;;;;;;27.10;13.90;;;;;;;20.39;29.86;100915.13;104954;1308;60047;-79
2022/02/16 11:23:47;;;;;;;25.10;13.50;;;;;;;20.41;30.04;100911.64;105195;1308;61747;-79
2022/02/16 11:26:43;;;;;;;24.00;14.80;;;;;;;20.40;30.01;100910.98;105121;1308;73775;-79
2022/02/16 11:29:27;;;;;;;20.50;14.20;;;;;;;20.41;30.08;100901.59;104702;1308;74631;-80
2022/02/16 11:32:10;;;;;;;27.70;14.20;;;;;;;20.45;30.13;100895.66;104346;1308;60505;-80
2022/02/16 11:34:36;;;;;;;27.10;14.70;;;;;;;20.46;30.20;100890.56;104408;1309;60534;-80
2022/02/16 11:37:02;;;;;;;22.80;15.20;;;;;;;20.48;30.55;100885.97;103929;1308;60526;-80
2022/02/16 11:39:50;;;;;;;35.40;15.40;;;;;;;20.50;30.70;100884.76;103963;1309;60478;-80
2022/02/16 11:42:23;;;;;;;21.50;15.20;;;;;;;20.51;30.94;100885.96;104148;1309;61445;-80
2022/02/16 11:45:12;;;;;;;23.10;14.60;;;;;;;20.52;31.12;100879.56;104286;1308;60693;-80
2022/02/16 11:47:41;;;;;;;;;;;;;;;20.49;31.19;100875.37;103949;1315;73080;-79
2022/02/16 11:50:10;;;;;;;25.00;14.80;;;;;;;20.39;31.07;100875.31;103766;1314;75409;-79
2022/02/16 11:52:52;;;;;;;17.90;13.20;;;;;;;20.37;30.99;100869.36;103558;1315;60345;-80
2022/02/16 11:55:25;;;;;;;27.30;13.10;;;;;;;20.32;30.73;100865.73;103617;1314;61770;-80
2022/02/16 11:58:10;;;;;;;18.40;13.50;;;;;;;20.27;30.38;100863.59;103612;1315;73754;-80
2022/02/16 12:00:42;;;;;;;24.50;13.40;;;;;;;20.24;30.52;100858.97;103716;1313;74896;-79
2022/02/16 12:03:16;;;;;;;21.80;12.00;;;;;;;20.19;30.21;100849.79;104549;1314;60380;-80
2022/02/16 12:06:01;;;;;;;23.70;14.10;;;;;;;20.18;30.17;100845.77;104425;1314;60370;-80
2022/02/16 12:08:38;;;;;;;23.30;13.80;;;;;;;20.16;30.22;100844.30;104404;1315;74597;-80